createdAt,value
2023-04-02T00:03:10.863Z,98619.78
2023-04-02T00:09:15.392Z,98627.22
2023-04-02T00:15:17.387Z,98643.78
2023-04-02T00:21:42.296Z,98652.13
2023-04-02T00:27:44.355Z,98666.34
2023-04-02T00:33:48.519Z,98666.66
2023-04-02T00:39:55.594Z,98678.59
2023-04-02T00:46:03.001Z,98680.53
2023-04-02T00:52:16.515Z,98699.47
2023-04-02T00:58:35.537Z,98712.63
2023-04-02T01:04:37.504Z,98717.94
2023-04-02T01:11:02.787Z,98722.44
2023-04-02T01:17:11.551Z,98732.78
2023-04-02T01:23:35.559Z,98742.22
2023-04-02T01:29:42.265Z,98756.28
2023-04-02T01:35:50.138Z,98772.56
2023-04-02T01:42:36.127Z,98787.88
2023-04-02T01:48:39.885Z,98794.19
2023-04-02T01:54:42.358Z,98805.19
2023-04-02T02:00:51.984Z,98820.03
2023-04-02T02:06:54.076Z,98819.00
2023-04-02T02:13:00.230Z,98848.34
2023-04-02T02:19:04.355Z,98841.91
2023-04-02T02:25:16.450Z,98857.38
2023-04-02T02:31:33.050Z,98877.06
2023-04-02T02:37:43.892Z,98887.56
2023-04-02T02:44:08.495Z,98902.59
2023-04-02T02:50:25.874Z,98916.72
2023-04-02T02:56:31.234Z,98921.69
2023-04-02T03:02:39.080Z,98927.72
2023-04-02T03:08:49.019Z,98944.59
2023-04-02T03:15:36.757Z,98965.91
2023-04-02T03:22:35.415Z,98977.50
2023-04-02T03:28:50.103Z,98991.75
2023-04-02T03:35:01.677Z,98992.94
2023-04-02T03:41:39.493Z,99023.94
2023-04-02T03:48:05.541Z,99027.91
2023-04-02T03:54:15.587Z,99036.03
2023-04-02T04:01:05.812Z,99047.59
2023-04-02T04:07:20.767Z,99059.03
2023-04-02T04:13:50.555Z,99075.56
2023-04-02T04:20:22.051Z,99085.66
2023-04-02T04:26:53.409Z,99096.63
2023-04-02T04:33:11.047Z,99106.59
2023-04-02T04:39:23.445Z,99125.63
2023-04-02T04:45:44.414Z,99137.94
2023-04-02T04:52:09.033Z,99163.47
2023-04-02T04:59:00.902Z,99173.06
2023-04-02T05:05:04.028Z,99192.91
2023-04-02T05:11:36.687Z,99202.63
2023-04-02T05:17:42.653Z,99215.09
2023-04-02T05:23:59.563Z,99235.63
2023-04-02T05:30:21.247Z,99252.38
2023-04-02T05:36:27.992Z,99262.75
2023-04-02T05:42:36.977Z,99272.31
2023-04-02T05:48:46.180Z,99283.88
2023-04-02T05:54:54.763Z,99289.09
2023-04-02T06:01:24.089Z,99305.31
2023-04-02T06:07:54.958Z,99307.84
2023-04-02T06:13:57.374Z,99321.84
2023-04-02T06:20:01.969Z,99342.47
2023-04-02T06:26:38.028Z,99341.97
2023-04-02T06:32:39.951Z,99368.81
2023-04-02T06:38:43.973Z,99374.81
2023-04-02T06:44:46.452Z,99395.34
2023-04-02T06:51:16.765Z,99396.41
2023-04-02T06:57:18.975Z,99420.25
2023-04-02T07:03:30.929Z,99428.28
2023-04-02T07:09:33.001Z,99452.88
2023-04-02T07:15:35.122Z,99466.75
2023-04-02T07:21:37.457Z,99486.38
2023-04-02T07:27:39.375Z,99495.66
2023-04-02T07:33:42.206Z,99503.44
2023-04-02T07:39:44.146Z,99514.13
2023-04-02T07:45:46.099Z,99532.88
2023-04-02T07:51:48.586Z,99538.28
2023-04-02T07:57:57.192Z,99550.22
2023-04-02T08:03:59.105Z,99568.22
2023-04-02T08:10:01.654Z,99580.91
2023-04-02T08:16:05.073Z,99588.00
2023-04-02T08:22:06.967Z,99606.69
2023-04-02T08:28:08.907Z,99618.31
2023-04-02T08:34:11.048Z,99627.06
2023-04-02T08:40:31.949Z,99639.81
2023-04-02T08:46:51.362Z,99646.59
2023-04-02T08:52:53.358Z,99655.09
2023-04-02T08:59:01.863Z,99663.50
2023-04-02T09:05:15.532Z,99668.16
2023-04-02T09:11:47.936Z,99683.28
2023-04-02T09:18:18.989Z,99691.50
2023-04-02T09:24:20.925Z,99704.75
2023-04-02T09:30:31.972Z,99722.38
2023-04-02T09:36:38.652Z,99726.06
2023-04-02T09:42:40.885Z,99743.94
2023-04-02T09:48:58.514Z,99748.44
2023-04-02T09:55:15.973Z,99758.34
2023-04-02T10:01:56.621Z,99782.59
2023-04-02T10:08:25.389Z,99782.09
2023-04-02T10:14:48.264Z,99795.44
2023-04-02T10:20:52.621Z,99805.06
2023-04-02T10:27:29.467Z,99815.00
2023-04-02T10:33:37.322Z,99812.78
2023-04-02T10:39:53.498Z,99825.63
2023-04-02T10:46:43.151Z,99820.66
2023-04-02T10:53:38.590Z,99833.06
2023-04-02T11:00:06.052Z,99839.03
2023-04-02T11:06:27.643Z,99848.06
2023-04-02T11:12:43.389Z,99851.44
2023-04-02T11:19:31.916Z,99862.53
2023-04-02T11:25:34.400Z,99878.03
2023-04-02T11:31:37.687Z,99878.38
2023-04-02T11:37:46.114Z,99874.66
2023-04-02T11:43:49.940Z,99885.53
2023-04-02T11:49:54.812Z,99899.94
2023-04-02T11:56:29.240Z,99917.47
2023-04-02T12:02:53.891Z,99923.72
2023-04-02T12:09:29.206Z,99934.75
2023-04-02T12:15:48.722Z,99945.19
2023-04-02T12:21:53.076Z,99954.69
2023-04-02T12:28:10.727Z,99958.75
2023-04-02T12:34:23.052Z,99964.69
2023-04-02T12:40:26.560Z,99966.78
2023-04-02T12:46:34.596Z,99967.91
2023-04-02T12:52:43.381Z,99969.28
2023-04-02T12:58:56.949Z,99982.66
2023-04-02T13:05:01.678Z,99984.66
2023-04-02T13:11:06.264Z,99978.31
2023-04-02T13:17:46.800Z,99977.97
2023-04-02T13:23:48.734Z,99986.41
2023-04-02T13:29:50.702Z,99990.28
2023-04-02T13:35:52.986Z,99995.72
2023-04-02T13:42:04.111Z,99994.06
2023-04-02T13:48:06.571Z,100000.31
2023-04-02T13:54:23.846Z,100016.41
2023-04-02T14:00:26.693Z,100017.75
2023-04-02T14:07:08.770Z,100024.16
2023-04-02T14:13:41.194Z,100028.66
2023-04-02T14:20:30.622Z,100028.03
2023-04-02T14:27:11.361Z,100032.34
2023-04-02T14:33:44.295Z,100023.84
2023-04-02T14:40:10.735Z,100025.97
2023-04-02T14:46:12.829Z,100038.84
2023-04-02T14:52:20.125Z,100043.25
2023-04-02T14:58:46.804Z,100047.66
2023-04-02T15:05:01.640Z,100053.81
2023-04-02T15:11:23.519Z,100042.03
2023-04-02T15:17:25.524Z,100055.59
2023-04-02T15:23:55.014Z,100056.13
2023-04-02T15:30:23.263Z,100068.41
2023-04-02T15:36:48.798Z,100073.72
2023-04-02T15:43:11.558Z,100076.19
2023-04-02T15:49:54.621Z,100080.06
2023-04-02T15:56:04.867Z,100090.91
2023-04-02T16:02:51.718Z,100096.44
2023-04-02T16:09:32.819Z,100091.03
2023-04-02T16:15:43.602Z,100095.34
2023-04-02T16:22:23.464Z,100108.06
2023-04-02T16:28:35.798Z,100114.88
2023-04-02T16:34:37.790Z,100116.91
2023-04-02T16:41:32.949Z,100129.22
2023-04-02T16:47:52.378Z,100136.19
2023-04-02T16:54:11.390Z,100147.00
2023-04-02T17:00:34.553Z,100152.59
2023-04-02T17:07:02.268Z,100167.38
2023-04-02T17:13:14.643Z,100176.66
2023-04-02T17:19:19.303Z,100183.31
2023-04-02T17:25:30.219Z,100190.47
2023-04-02T17:31:35.245Z,100195.22
2023-04-02T17:38:31.866Z,100205.03
2023-04-02T17:45:01.169Z,100212.81
2023-04-02T17:52:08.772Z,100209.25
2023-04-02T17:58:54.372Z,100230.09
2023-04-02T18:05:40.484Z,100253.09
2023-04-02T18:11:51.085Z,100261.34
2023-04-02T18:18:47.081Z,100267.81
2023-04-02T18:25:30.728Z,100267.63
2023-04-02T18:32:29.104Z,100279.31
2023-04-02T18:38:36.461Z,100282.50
2023-04-02T18:45:04.006Z,100293.66
2023-04-02T18:51:13.772Z,100305.59
2023-04-02T18:57:28.449Z,100320.78
2023-04-02T19:03:56.482Z,100342.09
2023-04-02T19:10:28.577Z,100341.81
2023-04-02T19:17:22.469Z,100356.69
2023-04-02T19:23:50.105Z,100360.78
2023-04-02T19:30:34.237Z,100377.31
2023-04-02T19:36:57.118Z,100375.16
2023-04-02T19:42:59.064Z,100388.28
2023-04-02T19:49:32.385Z,100388.41
2023-04-02T19:55:34.720Z,100391.47
2023-04-02T20:01:37.053Z,100405.63
2023-04-02T20:07:39.512Z,100405.38
2023-04-02T20:13:41.444Z,100408.75
2023-04-02T20:19:43.420Z,100415.72
2023-04-02T20:25:53.126Z,100417.28
2023-04-02T20:31:55.278Z,100423.56
2023-04-02T20:37:57.522Z,100428.06
2023-04-02T20:43:59.407Z,100437.19
2023-04-02T20:50:01.543Z,100449.75
2023-04-02T20:56:10.274Z,100459.78
2023-04-02T21:02:12.487Z,100460.19
2023-04-02T21:08:14.948Z,100461.41
2023-04-02T21:14:19.106Z,100469.16
2023-04-02T21:20:21.069Z,100473.44
2023-04-02T21:26:23.501Z,100483.91
2023-04-02T21:32:25.429Z,100484.56
2023-04-02T21:38:27.493Z,100498.16
2023-04-02T21:44:29.624Z,100500.53
2023-04-02T21:50:31.488Z,100506.81
2023-04-02T21:56:37.070Z,100515.53
2023-04-02T22:02:39.066Z,100514.53
2023-04-02T22:08:43.740Z,100519.78
2023-04-02T22:14:45.962Z,100531.69
2023-04-02T22:20:47.827Z,100529.91
2023-04-02T22:26:50.039Z,100533.28
2023-04-02T22:32:52.137Z,100540.97
2023-04-02T22:38:55.049Z,100535.78
2023-04-02T22:44:56.975Z,100545.41
2023-04-02T22:50:59.029Z,100544.69
2023-04-02T22:57:01.171Z,100556.25
2023-04-02T23:03:03.453Z,100559.81
2023-04-02T23:09:05.569Z,100568.56
2023-04-02T23:15:08.733Z,100571.19
2023-04-02T23:21:11.063Z,100578.47
2023-04-02T23:27:13.050Z,100577.13
2023-04-02T23:33:14.958Z,100568.22
2023-04-02T23:39:16.969Z,100568.19
2023-04-02T23:45:18.871Z,100579.25
2023-04-02T23:51:21.504Z,100569.97
2023-04-02T23:57:23.432Z,100573.59
